Time;durP1;ratioP1;P1;durP2;ratioP2;P2;SDS_P1;SDS_P2;PMS_P1;PMS_P2;Temp;Humidity;BMP_temperature;BMP_pressure;BME280_temperature;BME280_humidity;BME280_pressure;Samples;Min_cycle;Max_cycle;Signal;HPM_P1;HPM_P2
2022/11/19 00:00:12;;;;;;;;;;;;;;;4.83;78.94;101575.75;4851448;29;5797;-81
2022/11/19 00:02:38;;;;;;;;;;;;;;;4.81;78.89;101575.91;4848806;29;5858;-81
2022/11/19 00:05:05;;;;;;;;;;;;;;;4.86;78.85;101583.44;4846422;29;5657;-80
2022/11/19 00:07:31;;;;;;;;;;;;;;;4.85;78.74;101589.75;4848953;29;5469;-81
2022/11/19 00:09:58;;;;;;;;;;;;;;;4.83;78.99;101597.94;4845768;29;5963;-79
2022/11/19 00:15:11;;;;;;;;;;;;;;;4.85;78.66;101590.59;4844313;29;5476;-81
2022/11/19 00:17:37;;;;;;;;;;;;;;;4.85;78.81;101590.59;4846065;29;5812;-81
2022/11/19 00:20:04;;;;;;;;;;;;;;;4.88;78.79;101578.78;4837381;29;5808;-80
2022/11/19 00:22:30;;;;;;;;;;;;;;;4.85;78.83;101584.41;4850440;29;5949;-80
2022/11/19 00:24:57;;;;;;;;;;;;;;;4.86;78.65;101586.94;4852688;29;5839;-83
2022/11/19 00:27:23;;;;;;;;;;;;;;;4.85;78.71;101587.09;4830930;29;5488;-79
2022/11/19 00:29:50;;;;;;;;;;;;;;;4.83;78.84;101589.94;4850960;29;5484;-80
2022/11/19 00:32:17;;;;;;;;;;;;;;;4.83;78.96;101581.94;4834577;29;5603;-80
2022/11/19 00:34:43;;;;;;;;;;;;;;;4.86;78.76;101578.09;4836051;29;6025;-81
2022/11/19 00:37:10;;;;;;;;;;;;;;;4.85;78.73;101590.59;4847171;29;5902;-80
2022/11/19 00:39:36;;;;;;;;;;;;;;;4.81;79.18;101589.25;4852270;29;5959;-82
2022/11/19 00:42:03;;;;;;;;;;;;;;;4.84;78.80;101594.25;4849358;29;5730;-81
2022/11/19 00:44:29;;;;;;;;;;;;;;;4.82;78.92;101598.91;4849219;29;5507;-81
2022/11/19 00:46:56;;;;;;;;;;;;;;;4.86;78.83;101602.97;4846815;29;5558;-80
2022/11/19 00:49:22;;;;;;;;;;;;;;;4.81;78.95;101589.25;4830122;29;5760;-81
2022/11/19 00:51:49;;;;;;;;;;;;;;;4.81;79.13;101594.59;4832926;29;5748;-81
2022/11/19 00:54:15;;;;;;;;;;;;;;;4.80;79.04;101598.25;4845632;29;5475;-81
2022/11/19 00:56:42;;;;;;;;;;;;;;;4.81;79.08;101591.91;4836988;29;5604;-81
2022/11/19 00:59:09;;;;;;;;;;;;;;;4.82;78.89;101592.75;4831338;29;5529;-81
2022/11/19 01:01:35;;;;;;;;;;;;;;;4.80;78.98;101590.25;4828241;29;5634;-81
2022/11/19 01:04:02;;;;;;;;;;;;;;;4.79;79.02;101593.88;4841847;29;5339;-79
2022/11/19 01:06:28;;;;;;;;;;;;;;;4.81;78.97;101594.59;4827678;29;5376;-81
2022/11/19 01:08:55;;;;;;;;;;;;;;;4.81;79.04;101597.25;4829214;29;5504;-80
2022/11/19 01:11:22;;;;;;;;;;;;;;;4.81;78.88;101594.59;4842764;29;5382;-81
2022/11/19 01:13:48;;;;;;;;;;;;;;;4.80;78.91;101587.56;4843664;29;5446;-82
2022/11/19 01:16:15;;;;;;;;;;;;;;;4.78;79.06;101602.91;4839334;29;5924;-81
2022/11/19 01:18:42;;;;;;;;;;;;;;;4.79;78.85;101596.56;4843387;29;5853;-80
2022/11/19 01:21:09;;;;;;;;;;;;;;;4.81;78.97;101599.09;4832242;29;5554;-80
2022/11/19 01:23:36;;;;;;;;;;;;;;;4.83;78.75;101597.09;4839215;29;5485;-81
2022/11/19 01:26:02;;;;;;;;;;;;;;;4.85;78.69;101601.28;4821776;29;5851;-81
2022/11/19 01:28:29;;;;;;;;;;;;;;;4.81;78.78;101593.75;4824587;29;5432;-79
2022/11/19 01:30:55;;;;;;;;;;;;;;;4.79;78.92;101599.22;4834031;29;5643;-81
2022/11/19 01:33:22;;;;;;;;;;;;;;;4.81;78.84;101591.91;4824122;29;5543;-82
2022/11/19 01:35:48;;;;;;;;;;;;;;;4.81;78.86;101599.09;4820982;29;5757;-80
2022/11/19 01:38:15;;;;;;;;;;;;;;;4.78;78.87;101590.38;4839109;29;5536;-81
2022/11/19 01:40:42;;;;;;;;;;;;;;;4.81;78.86;101589.25;4841571;29;5862;-80
2022/11/19 01:43:08;;;;;;;;;;;;;;;4.82;78.80;101588.25;4839430;29;5875;-80
2022/11/19 01:45:35;;;;;;;;;;;;;;;4.85;78.68;101589.75;4843147;29;5719;-80
2022/11/19 01:48:04;;;;;;;;;;;;;;;4.86;78.69;101588.78;4843596;29;5476;-81
2022/11/19 01:50:30;;;;;;;;;;;;;;;4.84;78.83;101596.09;4841078;29;5382;-81
2022/11/19 01:52:57;;;;;;;;;;;;;;;4.86;78.58;101591.47;4833291;29;5370;-80
2022/11/19 01:55:23;;;;;;;;;;;;;;;4.83;78.60;101599.78;4854128;29;6053;-81
2022/11/19 01:57:50;;;;;;;;;;;;;;;4.86;78.67;101605.63;4837154;29;5480;-82
2022/11/19 02:00:16;;;;;;;;;;;;;;;4.86;78.85;101604.81;4839927;29;5941;-81
2022/11/19 02:02:43;;;;;;;;;;;;;;;4.74;78.65;101577.53;4836851;29;5356;-81
2022/11/19 02:05:09;;;;;;;;;;;;;;;4.83;78.91;101603.28;4845443;29;5403;-81
2022/11/19 02:07:36;;;;;;;;;;;;;;;4.83;78.97;101603.28;4838970;29;5459;-81
2022/11/19 02:10:03;;;;;;;;;;;;;;;4.87;78.63;101601.97;4820252;29;5945;-81
2022/11/19 02:12:29;;;;;;;;;;;;;;;4.85;78.73;101603.94;4836874;29;5424;-83
2022/11/19 02:14:56;;;;;;;;;;;;;;;4.85;78.71;101603.09;4839954;29;5832;-82
2022/11/19 02:17:22;;;;;;;;;;;;;;;4.86;78.68;101594.97;4838947;29;5347;-80
2022/11/19 02:19:49;;;;;;;;;;;;;;;4.86;78.76;101599.47;4822885;29;5372;-79
2022/11/19 02:22:16;;;;;;;;;;;;;;;4.89;78.53;101599.16;4837506;29;5941;-81
2022/11/19 02:24:43;;;;;;;;;;;;;;;4.88;78.68;101592.97;4845898;29;5589;-79
2022/11/19 02:27:09;;;;;;;;;;;;;;;4.90;78.53;101590.13;4845040;29;5450;-80
2022/11/19 02:29:36;;;;;;;;;;;;;;;4.89;78.49;101591.97;4836738;29;5335;-78
2022/11/19 02:32:03;;;;;;;;;;;;;;;4.49;78.33;101517.81;4836190;29;5798;-81
2022/11/19 02:34:29;;;;;;;;;;;;;;;4.94;78.49;101588.81;4841690;29;5469;-81
2022/11/19 02:36:56;;;;;;;;;;;;;;;4.92;78.55;101588.16;4836844;29;5497;-80
2022/11/19 02:39:22;;;;;;;;;;;;;;;4.88;78.64;101590.31;4839541;29;5356;-81
2022/11/19 02:41:49;;;;;;;;;;;;;;;4.90;78.56;101582.13;4823241;29;5572;-81
2022/11/19 02:47:00;;;;;;;;;;;;;;;4.87;78.68;101596.63;4834636;29;5560;-81
2022/11/19 02:49:27;;;;;;;;;;;;;;;4.91;78.28;101598.00;4829627;29;5433;-81
2022/11/19 02:51:53;;;;;;;;;;;;;;;4.89;78.51;101599.97;4835575;29;5331;-80
2022/11/19 02:54:20;;;;;;;;;;;;;;;4.90;78.40;101593.63;4826659;29;5662;-79
2022/11/19 02:56:47;;;;;;;;;;;;;;;4.93;78.39;101587.16;4839836;29;5498;-82
2022/11/19 03:04:42;;;;;;;;;;;;;;;4.88;78.55;101595.66;4838054;29;5685;-81
2022/11/19 03:07:09;;;;;;;;;;;;;;;4.89;78.56;101591.97;4819724;29;5431;-80
2022/11/19 03:09:36;;;;;;;;;;;;;;;4.89;78.55;101591.97;4819059;29;5401;-83
2022/11/19 03:12:03;;;;;;;;;;;;;;;4.92;78.41;101593.50;4838757;29;5972;-79
2022/11/19 03:17:28;;;;;;;;;;;;;;;4.90;78.60;101592.81;4795894;29;5524;-80
2022/11/19 03:19:55;;;;;;;;;;;;;;;4.86;78.66;101592.28;4783752;29;5452;-81
2022/11/19 03:22:21;;;;;;;;;;;;;;;4.88;78.60;101587.63;4821617;29;5598;-80
2022/11/19 03:24:48;;;;;;;;;;;;;;;4.91;78.51;101579.31;4845466;29;5676;-79
2022/11/19 03:27:14;;;;;;;;;;;;;;;4.89;78.52;101591.16;4838620;29;5375;-82
2022/11/19 03:29:41;;;;;;;;;;;;;;;4.92;78.40;101582.81;4836305;29;5537;-81
2022/11/19 03:32:07;;;;;;;;;;;;;;;4.91;78.41;101586.47;4839719;29;5590;-81
2022/11/19 03:34:34;;;;;;;;;;;;;;;4.91;78.49;101589.13;4850249;29;5395;-81
2022/11/19 03:37:01;;;;;;;;;;;;;;;4.89;78.80;101583.97;4841958;29;5380;-80
2022/11/19 03:39:27;;;;;;;;;;;;;;;4.88;78.57;101589.44;4820491;29;5441;-79
2022/11/19 03:41:54;;;;;;;;;;;;;;;4.86;78.65;101589.63;4822013;29;5372;-81
2022/11/19 03:44:20;;;;;;;;;;;;;;;4.89;78.70;101583.97;4835218;29;5465;-82
2022/11/19 03:46:47;;;;;;;;;;;;;;;4.88;78.67;101587.63;4837164;29;5767;-81
2022/11/19 03:49:13;;;;;;;;;;;;;;;4.88;78.59;101592.97;4841166;29;5703;-80
2022/11/19 03:51:40;;;;;;;;;;;;;;;4.86;78.78;101591.47;4838160;29;5449;-80
2022/11/19 03:54:07;;;;;;;;;;;;;;;4.86;78.73;101581.63;4831260;29;6008;-80
2022/11/19 03:56:33;;;;;;;;;;;;;;;4.88;78.63;101584.97;4837865;29;5428;-80
2022/11/19 03:59:00;;;;;;;;;;;;;;;4.87;78.40;101569.94;4838042;29;5415;-80
2022/11/19 04:01:27;;;;;;;;;;;;;;;4.89;78.42;101583.97;4822656;29;5310;-80
2022/11/19 04:06:38;;;;;;;;;;;;;;;4.88;78.57;101570.75;4837213;29;5482;-82
2022/11/19 04:09:04;;;;;;;;;;;;;;;4.90;78.57;101566.94;4831537;29;5864;-81
2022/11/19 04:11:31;;;;;;;;;;;;;;;4.89;78.57;101575.13;4837913;29;5358;-80
2022/11/19 04:13:58;;;;;;;;;;;;;;;4.88;78.38;101566.28;4837670;29;5569;-81
2022/11/19 04:16:24;;;;;;;;;;;;;;;4.88;78.54;101568.09;4834685;29;5927;-82
2022/11/19 04:18:52;;;;;;;;;;;;;;;4.87;78.61;101569.09;4839476;29;5531;-81
2022/11/19 04:21:19;;;;;;;;;;;;;;;4.88;78.45;101568.94;4834344;29;5430;-81
2022/11/19 04:23:45;;;;;;;;;;;;;;;4.91;78.36;101565.09;4832011;29;5352;-81
2022/11/19 04:26:12;;;;;;;;;;;;;;;4.90;78.35;101566.94;4834451;29;5335;-80
2022/11/19 04:28:38;;;;;;;;;;;;;;;4.85;78.74;101566.56;4838750;29;5448;-81
2022/11/19 04:31:05;;;;;;;;;;;;;;;4.87;78.54;101563.75;4833209;29;5600;-83
2022/11/19 04:33:32;;;;;;;;;;;;;;;4.83;78.56;101565.91;4819237;29;5484;-81
2022/11/19 04:35:58;;;;;;;;;;;;;;;4.84;78.61;101564.06;4835429;29;6112;-81
2022/11/19 04:38:25;;;;;;;;;;;;;;;4.85;78.37;101560.41;4840319;29;5296;-82
2022/11/19 04:40:52;;;;;;;;;;;;;;;5.00;77.98;101561.50;4835645;29;5296;-82
2022/11/19 04:43:18;;;;;;;;;;;;;;;4.85;78.44;101565.72;4842032;29;5363;-79
2022/11/19 04:45:45;;;;;;;;;;;;;;;4.82;78.60;101564.22;4827526;29;5424;-80
2022/11/19 04:48:11;;;;;;;;;;;;;;;4.87;78.41;101572.59;4845456;29;5380;-80
2022/11/19 04:50:38;;;;;;;;;;;;;;;4.82;78.54;101566.06;4826112;29;5408;-80
2022/11/19 04:53:05;;;;;;;;;;;;;;;4.87;78.30;101566.44;4840533;29;5939;-80
2022/11/19 04:55:31;;;;;;;;;;;;;;;4.83;78.52;101571.25;4840094;29;5472;-82
2022/11/19 04:57:58;;;;;;;;;;;;;;;4.84;78.55;101569.41;4842324;29;5449;-80
2022/11/19 05:00:24;;;;;;;;;;;;;;;4.83;78.57;101570.41;4826307;29;5422;-80
2022/11/19 05:02:51;;;;;;;;;;;;;;;4.87;78.35;101569.09;4839030;29;5696;-81
2022/11/19 05:05:17;;;;;;;;;;;;;;;4.85;78.41;101565.72;4835834;29;5411;-79
2022/11/19 05:07:44;;;;;;;;;;;;;;;4.84;78.36;101564.06;4823118;29;5488;-81
2022/11/19 05:10:10;;;;;;;;;;;;;;;4.83;78.63;101573.91;4835866;29;5412;-80
2022/11/19 05:12:37;;;;;;;;;;;;;;;4.83;78.57;101567.75;4845629;29;5417;-81
2022/11/19 05:15:03;;;;;;;;;;;;;;;4.83;78.37;101573.09;4839677;29;5397;-81
2022/11/19 05:17:30;;;;;;;;;;;;;;;4.86;78.23;101576.28;4843781;29;5864;-81
2022/11/19 05:19:58;;;;;;;;;;;;;;;4.87;78.29;101577.09;4843509;29;5534;-80
2022/11/19 05:22:26;;;;;;;;;;;;;;;4.87;78.36;101569.09;4836874;29;5372;-80
2022/11/19 05:24:52;;;;;;;;;;;;;;;4.85;78.24;101569.25;4820413;29;5571;-81
2022/11/19 05:27:19;;;;;;;;;;;;;;;4.86;78.38;101573.59;4835457;29;6006;-80
2022/11/19 05:29:45;;;;;;;;;;;;;;;4.87;78.35;101564.59;4841944;29;5588;-80
2022/11/19 05:32:12;;;;;;;;;;;;;;;4.88;78.42;101565.41;4840021;29;5991;-80
2022/11/19 05:34:38;;;;;;;;;;;;;;;4.89;78.29;101561.78;4836788;29;5366;-80
2022/11/19 05:37:05;;;;;;;;;;;;;;;4.87;78.25;101569.09;4838733;29;5381;-80
2022/11/19 05:39:31;;;;;;;;;;;;;;;4.87;78.32;101569.09;4839474;29;5379;-79
2022/11/19 05:41:58;;;;;;;;;;;;;;;4.86;78.38;101567.44;4837773;29;5414;-82
2022/11/19 05:44:25;;;;;;;;;;;;;;;4.85;78.45;101563.91;4842700;29;5347;-82
2022/11/19 05:46:51;;;;;;;;;;;;;;;4.85;78.39;101565.72;4834002;29;5706;-81
2022/11/19 05:49:18;;;;;;;;;;;;;;;4.88;78.26;101568.09;4844242;29;5690;-82
2022/11/19 05:51:44;;;;;;;;;;;;;;;4.92;78.08;101572.97;4836828;29;5938;-81
2022/11/19 05:54:11;;;;;;;;;;;;;;;4.87;78.07;101571.75;4827918;29;5849;-81
2022/11/19 05:56:37;;;;;;;;;;;;;;;4.89;78.26;101567.13;4838115;29;5391;-80
2022/11/19 05:59:04;;;;;;;;;;;;;;;4.89;78.21;101575.13;4822101;29;5873;-81
2022/11/19 06:01:30;;;;;;;;;;;;;;;4.90;78.04;101571.44;4823697;29;5965;-80
2022/11/19 06:03:57;;;;;;;;;;;;;;;4.89;78.25;101575.13;4841098;29;5405;-80
2022/11/19 06:06:24;;;;;;;;;;;;;;;4.84;78.40;101578.25;4834374;29;6058;-80
2022/11/19 06:08:50;;;;;;;;;;;;;;;4.88;78.25;101565.41;4837165;29;5610;-79
2022/11/19 06:13:57;;;;;;;;;;;;;;;4.87;78.31;101575.25;4838748;29;5344;-80
2022/11/19 06:16:24;;;;;;;;;;;;;;;4.85;78.56;101581.75;4840217;29;5633;-80
2022/11/19 06:18:51;;;;;;;;;;;;;;;4.85;78.21;101566.56;4823661;29;5515;-80
2022/11/19 06:21:17;;;;;;;;;;;;;;;4.90;78.16;101572.28;4845340;29;5844;-81
2022/11/19 06:23:44;;;;;;;;;;;;;;;4.86;78.29;101560.25;4837725;29;5860;-81
2022/11/19 06:26:10;;;;;;;;;;;;;;;4.83;78.40;101565.91;4850580;29;5548;-80
2022/11/19 06:28:37;;;;;;;;;;;;;;;4.85;78.24;101561.22;4842561;29;5469;-83
2022/11/19 06:31:04;;;;;;;;;;;;;;;4.86;78.17;101564.75;4852354;29;5691;-81
2022/11/19 06:33:30;;;;;;;;;;;;;;;4.81;78.38;101564.38;4858734;29;5408;-81
2022/11/19 06:35:57;;;;;;;;;;;;;;;4.78;78.61;101563.69;4857091;29;5546;-81
2022/11/19 06:38:24;;;;;;;;;;;;;;;4.78;78.39;101558.38;4854902;29;5651;-81
2022/11/19 06:40:51;;;;;;;;;;;;;;;4.80;78.42;101560.06;4827923;29;5669;-81
2022/11/19 06:43:17;;;;;;;;;;;;;;;4.85;78.17;101565.72;4849711;29;5980;-81
2022/11/19 06:45:45;;;;;;;;;;;;;;;4.81;78.38;101559.06;4828633;29;5415;-80
2022/11/19 06:48:12;;;;;;;;;;;;;;;4.81;78.38;101561.72;4831850;29;5411;-80
2022/11/19 06:50:38;;;;;;;;;;;;;;;4.79;78.45;101577.88;4839733;29;5736;-76
2022/11/19 06:53:05;;;;;;;;;;;;;;;4.82;78.36;101572.22;4836232;29;5492;-78
2022/11/19 06:55:31;;;;;;;;;;;;;;;4.80;78.48;101571.56;4828049;29;5423;-78
2022/11/19 06:57:58;;;;;;;;;;;;;;;4.80;78.33;101574.22;4849986;29;5448;-78
2022/11/19 07:00:24;;;;;;;;;;;;;;;4.78;78.41;101570.88;4840716;29;5876;-78
2022/11/19 07:02:51;;;;;;;;;;;;;;;4.81;78.36;101581.25;4844137;29;5781;-78
2022/11/19 07:05:18;;;;;;;;;;;;;;;4.77;78.31;101578.03;4846265;29;5441;-77
2022/11/19 07:07:44;;;;;;;;;;;;;;;4.78;78.33;101570.88;4843632;29;5955;-77
2022/11/19 07:10:11;;;;;;;;;;;;;;;4.77;78.30;101577.22;4854160;29;5592;-77
2022/11/19 07:12:37;;;;;;;;;;;;;;;4.74;78.55;101575.69;4852812;29;6017;-77
2022/11/19 07:15:04;;;;;;;;;;;;;;;4.75;78.25;101577.34;4839528;29;5631;-79
2022/11/19 07:17:30;;;;;;;;;;;;;;;4.80;78.33;101573.41;4854498;29;5390;-80
2022/11/19 07:19:57;;;;;;;;;;;;;;;4.74;78.42;101569.53;4847135;29;5339;-79
2022/11/19 07:22:23;;;;;;;;;;;;;;;4.77;78.21;101579.88;4840149;29;5180;-77
2022/11/19 07:24:50;;;;;;;;;;;;;;;4.72;78.44;101568.84;4845166;29;5207;-80
2022/11/19 07:27:16;;;;;;;;;;;;;;;4.73;78.39;101579.34;4858086;29;5245;-80
2022/11/19 07:29:43;;;;;;;;;;;;;;;4.75;78.33;101571.19;4843638;29;5831;-80
2022/11/19 07:32:09;;;;;;;;;;;;;;;4.73;78.05;101579.34;4855953;29;5822;-80
2022/11/19 07:34:36;;;;;;;;;;;;;;;4.72;78.36;101571.50;4858413;29;5913;-80
2022/11/19 07:37:02;;;;;;;;;;;;;;;4.75;78.30;101568.53;4859391;29;5314;-79
2022/11/19 07:39:29;;;;;;;;;;;;;;;4.72;78.08;101568.84;4854335;29;5415;-79
2022/11/19 07:44:40;;;;;;;;;;;;;;;4.74;78.20;101577.53;4858468;29;5390;-79
2022/11/19 07:47:07;;;;;;;;;;;;;;;4.70;78.46;101570.81;4858090;29;5358;-79
2022/11/19 07:49:33;;;;;;;;;;;;;;;4.72;78.28;101571.50;4857136;29;5823;-80
2022/11/19 07:52:00;;;;;;;;;;;;;;;4.72;78.29;101571.50;4856396;29;5334;-80
2022/11/19 07:54:26;;;;;;;;;;;;;;;4.71;78.26;101564.50;4859825;29;5277;-80
2022/11/19 07:56:53;;;;;;;;;;;;;;;4.73;78.37;101574.00;4858056;29;5724;-80
2022/11/19 07:59:19;;;;;;;;;;;;;;;4.74;78.32;101567.69;4858464;29;5293;-79
2022/11/19 08:01:46;;;;;;;;;;;;;;;4.70;78.34;101563.63;4857862;29;5225;-80
2022/11/19 08:04:12;;;;;;;;;;;;;;;4.73;78.26;101573.16;4859266;29;5208;-80
2022/11/19 08:06:39;;;;;;;;;;;;;;;4.72;78.50;101574.19;4857111;29;5909;-79
2022/11/19 08:09:05;;;;;;;;;;;;;;;4.74;78.24;101569.53;4856670;29;5426;-79
2022/11/19 08:11:32;;;;;;;;;;;;;;;4.77;78.01;101566.53;4839536;29;5257;-80
2022/11/19 08:13:58;;;;;;;;;;;;;;;4.71;78.21;101572.50;4856461;29;5259;-80
2022/11/19 08:19:09;;;;;;;;;;;;;;;4.79;78.19;101575.22;4840497;29;5289;-81
2022/11/19 08:21:36;;;;;;;;;;;;;;;4.72;78.25;101568.84;4841431;29;5191;-78
2022/11/19 08:24:02;;;;;;;;;;;;;;;4.73;78.25;101557.16;4860990;29;5807;-79
2022/11/19 08:26:29;;;;;;;;;;;;;;;4.71;77.94;101559.16;4857771;29;5722;-80
2022/11/19 08:28:55;;;;;;;;;;;;;;;4.67;78.47;101561.28;4847300;29;5363;-80
2022/11/19 08:31:22;;;;;;;;;;;;;;;4.70;78.35;101560.13;4856714;29;5264;-79
2022/11/19 08:33:48;;;;;;;;;;;;;;;4.69;78.35;101555.81;4841812;29;5436;-80
2022/11/19 08:36:15;;;;;;;;;;;;;;;4.68;78.39;101536.28;4856283;29;5382;-79
2022/11/19 08:38:41;;;;;;;;;;;;;;;4.70;78.45;101547.63;4844967;29;5150;-80
2022/11/19 08:43:52;;;;;;;;;;;;;;;4.73;78.10;101541.13;4856544;29;5393;-79
2022/11/19 08:46:19;;;;;;;;;;;;;;;4.71;78.23;101538.66;4856483;29;5820;-78
2022/11/19 08:48:45;;;;;;;;;;;;;;;4.68;78.50;101530.97;4858820;29;5237;-80
2022/11/19 08:51:13;;;;;;;;;;;;;;;4.68;78.40;101535.47;4844822;29;5382;-80
2022/11/19 08:53:40;;;;;;;;;;;;;;;4.66;78.49;101529.44;4839047;29;5347;-78
2022/11/19 08:56:06;;;;;;;;;;;;;;;4.66;78.47;101532.94;4857537;29;5182;-78
2022/11/19 08:58:33;;;;;;;;;;;;;;;4.65;78.39;101530.44;4857835;29;5212;-78
2022/11/19 09:00:59;;;;;;;;;;;;;;;4.64;78.31;101529.56;4843967;29;5171;-79
2022/11/19 09:03:26;;;;;;;;;;;;;;;4.66;78.28;101529.44;4856241;29;5218;-80
2022/11/19 09:05:52;;;;;;;;;;;;;;;4.65;78.46;101527.78;4835977;29;5516;-80
2022/11/19 09:08:19;;;;;;;;;;;;;;;4.65;78.27;101525.94;4835962;29;5298;-80
2022/11/19 09:10:45;;;;;;;;;;;;;;;4.65;78.35;101533.09;4860774;29;5087;-81
2022/11/19 09:13:12;;;;;;;;;;;;;;;4.64;78.49;101529.56;4846996;29;5942;-80
2022/11/19 09:15:38;;;;;;;;;;;;;;;4.66;78.46;101518.75;4845493;29;5267;-79
2022/11/19 09:18:05;;;;;;;;;;;;;;;4.64;78.05;101518.06;4835478;29;5278;-80
2022/11/19 09:20:31;;;;;;;;;;;;;;;4.63;78.42;101521.75;4833759;29;5099;-80
2022/11/19 09:22:58;;;;;;;;;;;;;;;4.67;78.24;101515.09;4857723;29;5621;-80
2022/11/19 09:25:25;;;;;;;;;;;;;;;4.65;78.42;101519.75;4843446;29;5167;-79
2022/11/19 09:27:51;;;;;;;;;;;;;;;4.61;78.49;101519.22;4840734;29;5753;-79
2022/11/19 09:30:18;;;;;;;;;;;;;;;4.65;78.50;101522.44;4850096;29;5186;-79
2022/11/19 09:32:44;;;;;;;;;;;;;;;4.65;78.40;101520.59;4840783;29;5751;-80
2022/11/19 09:35:11;;;;;;;;;;;;;;;4.63;78.39;101517.25;4860884;29;5181;-79
2022/11/19 09:37:39;;;;;;;;;;;;;;;4.69;77.98;101515.78;4845776;29;5312;-80
2022/11/19 09:40:07;;;;;;;;;;;;;;;4.67;78.20;101525.75;4862667;29;5498;-79
2022/11/19 09:42:33;;;;;;;;;;;;;;;4.62;78.43;101520.91;4841145;29;5267;-80
2022/11/19 09:45:00;;;;;;;;;;;;;;;4.65;78.28;101509.09;4860457;29;5893;-80
2022/11/19 09:47:27;;;;;;;;;;;;;;;4.64;78.36;101507.41;4860022;29;5240;-79
2022/11/19 09:49:53;;;;;;;;;;;;;;;4.64;78.18;101510.06;4858929;29;5238;-78
2022/11/19 09:52:20;;;;;;;;;;;;;;;4.62;77.86;101510.25;4861386;29;5356;-78
2022/11/19 09:54:46;;;;;;;;;;;;;;;4.64;78.33;101499.41;4860922;29;5169;-78
2022/11/19 09:57:13;;;;;;;;;;;;;;;4.62;78.26;101501.38;4861247;29;5267;-80
2022/11/19 09:59:44;;;;;;;;;;;;;;;4.66;78.19;101500.91;4859801;29;5187;-81
2022/11/19 10:02:11;;;;;;;;;;;;;;;4.64;78.13;101491.38;4860554;29;5214;-79
2022/11/19 10:04:37;;;;;;;;;;;;;;;4.60;78.36;101492.72;4859062;29;5216;-78
2022/11/19 10:07:05;;;;;;;;;;;;;;;4.62;78.27;101488.03;4860223;29;5274;-80
2022/11/19 10:09:31;;;;;;;;;;;;;;;4.62;78.20;101483.56;4854285;29;5259;-78
2022/11/19 10:11:58;;;;;;;;;;;;;;;4.58;78.33;101476.84;4858047;29;5712;-77
2022/11/19 10:14:24;;;;;;;;;;;;;;;4.64;78.03;101473.53;4841813;29;5282;-78
2022/11/19 10:16:51;;;;;;;;;;;;;;;4.60;78.22;101471.38;4858227;29;5247;-83
2022/11/19 10:19:18;;;;;;;;;;;;;;;4.61;78.33;101473.84;4861056;29;5328;-79
2022/11/19 10:21:44;;;;;;;;;;;;;;;4.62;78.26;101469.34;4859001;29;5709;-80
2022/11/19 10:24:11;;;;;;;;;;;;;;;4.62;78.27;101475.56;4859839;29;5530;-78
2022/11/19 10:26:37;;;;;;;;;;;;;;;4.58;78.37;101468.84;4844681;29;5626;-78
2022/11/19 10:29:04;;;;;;;;;;;;;;;4.59;78.21;101467.00;4856726;29;5181;-78
2022/11/19 10:31:31;;;;;;;;;;;;;;;4.62;78.26;101464.00;4855447;29;5467;-80
2022/11/19 10:33:58;;;;;;;;;;;;;;;4.62;78.03;101461.34;4860080;29;5305;-77
2022/11/19 10:36:25;;;;;;;;;;;;;;;4.57;78.29;101463.69;4841723;29;5503;-79
2022/11/19 10:38:51;;;;;;;;;;;;;;;4.59;78.21;101453.66;4860349;29;5292;-78
2022/11/19 10:41:18;;;;;;;;;;;;;;;4.61;78.25;101447.16;4858972;29;5389;-80
2022/11/19 10:43:47;;;;;;;;;;;;;;;4.59;78.21;101451.84;4842091;29;5546;-79
2022/11/19 10:46:13;;;;;;;;;;;;;;;4.58;77.93;101439.50;4856935;29;5665;-79
2022/11/19 10:48:40;;;;;;;;;;;;;;;4.61;78.19;101443.69;4849283;29;5380;-79
2022/11/19 10:51:06;;;;;;;;;;;;;;;4.57;78.31;101437.81;4859863;29;5987;-80
2022/11/19 10:53:35;;;;;;;;;;;;;;;4.59;78.43;101425.16;4861697;29;5247;-79
2022/11/19 10:56:01;;;;;;;;;;;;;;;4.60;78.01;101431.34;4844511;29;5690;-78
2022/11/19 10:58:28;;;;;;;;;;;;;;;4.61;78.16;101425.00;4858592;29;5322;-78
2022/11/19 11:00:54;;;;;;;;;;;;;;;4.59;78.36;101425.16;4843096;29;5344;-81
2022/11/19 11:03:21;;;;;;;;;;;;;;;4.62;78.26;101426.66;4861199;29;5270;-78
2022/11/19 11:05:47;;;;;;;;;;;;;;;4.62;78.22;101426.66;4856048;29;5764;-80
2022/11/19 11:08:14;;;;;;;;;;;;;;;4.59;78.07;101419.84;4859820;29;5184;-78
2022/11/19 11:10:43;;;;;;;;;;;;;;;4.63;78.14;101418.50;4857849;29;5271;-79
2022/11/19 11:15:53;;;;;;;;;;;;;;;4.64;78.28;101422.00;4839599;29;5240;-79
2022/11/19 11:18:20;;;;;;;;;;;;;;;4.60;78.22;101412.66;4852897;29;5278;-79
2022/11/19 11:20:46;;;;;;;;;;;;;;;4.61;78.08;101412.50;4858264;29;5857;-79
2022/11/19 11:23:13;;;;;;;;;;;;;;;4.60;78.24;101418.00;4859773;29;5216;-79
2022/11/19 11:25:40;;;;;;;;;;;;;;;4.59;78.33;101405.63;4854409;29;5199;-79
2022/11/19 11:28:06;;;;;;;;;;;;;;;4.62;78.15;101406.16;4857019;29;6064;-79
2022/11/19 11:30:33;;;;;;;;;;;;;;;4.61;78.31;101399.16;4855988;29;5422;-79
2022/11/19 11:33:00;;;;;;;;;;;;;;;4.62;78.23;101394.63;4855307;29;5269;-80
2022/11/19 11:35:26;;;;;;;;;;;;;;;4.61;78.13;101391.13;4856304;29;5620;-80
2022/11/19 11:37:53;;;;;;;;;;;;;;;4.58;78.37;101390.63;4858819;29;5716;-78
2022/11/19 11:40:19;;;;;;;;;;;;;;;4.57;78.31;101384.47;4857073;29;5798;-78
2022/11/19 11:42:49;;;;;;;;;;;;;;;4.60;78.26;101383.31;4859513;29;5636;-79
2022/11/19 11:45:16;;;;;;;;;;;;;;;4.60;78.13;101383.31;4854641;29;5684;-78
2022/11/19 11:47:42;;;;;;;;;;;;;;;4.59;78.25;101377.16;4843984;29;5191;-79
2022/11/19 11:50:09;;;;;;;;;;;;;;;4.57;78.48;101375.63;4846558;29;5179;-79
2022/11/19 11:52:35;;;;;;;;;;;;;;;4.60;78.26;101370.81;4847652;29;5277;-78
2022/11/19 11:55:02;;;;;;;;;;;;;;;4.60;78.39;101367.31;4844774;29;5751;-80
2022/11/19 11:57:28;;;;;;;;;;;;;;;4.58;78.32;101359.44;4857943;29;5361;-77
2022/11/19 11:59:55;;;;;;;;;;;;;;;4.58;78.34;101358.63;4854705;29;5186;-78
2022/11/19 12:02:22;;;;;;;;;;;;;;;4.56;78.53;101356.13;4837659;29;5597;-79
2022/11/19 12:04:49;;;;;;;;;;;;;;;4.59;78.20;101353.13;4854500;29;5255;-78
2022/11/19 12:07:16;;;;;;;;;;;;;;;4.59;78.30;101346.94;4855598;29;5450;-78
2022/11/19 12:09:42;;;;;;;;;;;;;;;4.65;77.90;101349.81;4854376;29;5270;-78
2022/11/19 12:12:09;;;;;;;;;;;;;;;4.59;78.21;101344.25;4861268;29;5200;-78
2022/11/19 12:14:35;;;;;;;;;;;;;;;4.62;78.31;101335.94;4842000;29;5532;-77
2022/11/19 12:17:02;;;;;;;;;;;;;;;4.65;77.96;101336.47;4837661;29;5142;-78
2022/11/19 12:19:28;;;;;;;;;;;;;;;4.62;77.99;101336.81;4845383;29;5401;-79
2022/11/19 12:21:55;;;;;;;;;;;;;;;4.62;78.14;101338.59;4857599;29;5169;-77
2022/11/19 12:24:21;;;;;;;;;;;;;;;4.59;78.28;101337.13;4844950;29;5307;-78
2022/11/19 12:26:48;;;;;;;;;;;;;;;4.62;78.19;101333.28;4858044;29;5199;-79
2022/11/19 12:29:15;;;;;;;;;;;;;;;4.66;77.96;101337.31;4854541;29;5320;-81
2022/11/19 12:31:41;;;;;;;;;;;;;;;4.61;78.04;101335.09;4845643;29;5169;-78
2022/11/19 12:34:08;;;;;;;;;;;;;;;4.64;78.07;101331.28;4856327;29;5357;-77
2022/11/19 12:36:34;;;;;;;;;;;;;;;4.64;77.99;101332.13;4857813;29;5213;-77
2022/11/19 12:39:01;;;;;;;;;;;;;;;4.63;78.00;101327.78;4855164;29;5276;-78
2022/11/19 12:41:27;;;;;;;;;;;;;;;4.65;78.04;101336.47;4858700;29;5344;-78
2022/11/19 12:43:54;;;;;;;;;;;;;;;4.66;78.07;101329.31;4842648;29;5178;-78
2022/11/19 12:46:20;;;;;;;;;;;;;;;4.65;78.09;101323.13;4856839;29;5741;-78
2022/11/19 12:48:47;;;;;;;;;;;;;;;4.64;78.05;101321.44;4853950;29;5689;-79
2022/11/19 12:51:13;;;;;;;;;;;;;;;4.64;78.11;101326.78;4845380;29;5233;-79
2022/11/19 12:53:40;;;;;;;;;;;;;;;4.65;77.91;101320.47;4845253;29;5910;-79
2022/11/19 12:56:06;;;;;;;;;;;;;;;4.64;78.10;101320.63;4861398;29;5129;-80
2022/11/19 12:58:33;;;;;;;;;;;;;;;4.63;78.45;101316.28;4860406;29;5274;-79
2022/11/19 13:00:59;;;;;;;;;;;;;;;4.63;78.23;101324.28;4861210;29;5807;-79
2022/11/19 13:03:26;;;;;;;;;;;;;;;4.65;78.06;101325.81;4845659;29;5371;-79
2022/11/19 13:05:53;;;;;;;;;;;;;;;4.64;78.32;101324.09;4848971;29;5514;-80
2022/11/19 13:08:19;;;;;;;;;;;;;;;4.67;78.16;101325.63;4847368;29;5322;-78
2022/11/19 13:10:46;;;;;;;;;;;;;;;4.64;78.37;101315.28;4860926;29;5247;-79
2022/11/19 13:13:12;;;;;;;;;;;;;;;4.64;78.29;101321.44;4859289;29;5239;-79
2022/11/19 13:15:39;;;;;;;;;;;;;;;4.63;78.23;101317.13;4841183;29;5229;-79
2022/11/19 13:18:05;;;;;;;;;;;;;;;4.63;78.22;101319.78;4858985;29;5777;-79
2022/11/19 13:20:32;;;;;;;;;;;;;;;4.63;78.32;101311.78;4860634;29;5844;-78
2022/11/19 13:22:58;;;;;;;;;;;;;;;4.64;78.29;101305.44;4847558;29;5086;-80